Time;durP1;ratioP1;P1;durP2;ratioP2;P2;SDS_P1;SDS_P2;PMS_P1;PMS_P2;Temp;Humidity;BMP_temperature;BMP_pressure;BME280_temperature;BME280_humidity;BME280_pressure;Samples;Min_cycle;Max_cycle;Signal;HPM_P1;HPM_P2
2022/06/12 00:00:58;;;;;;;17.53;9.00;;;;;;;15.49;90.70;100412.69;5092687;23;20206;-73
2022/06/12 00:03:27;;;;;;;14.83;8.20;;;;;;;15.42;90.56;100411.72;5091658;22;20207;-71
2022/06/12 00:05:56;;;;;;;15.67;8.80;;;;;;;15.44;90.60;100417.75;5099335;23;20426;-70
2022/06/12 00:08:24;;;;;;;16.17;8.43;;;;;;;15.38;91.28;100413.06;5111505;22;20206;-72
2022/06/12 00:10:53;;;;;;;12.50;8.37;;;;;;;15.38;90.86;100410.41;5095400;22;20252;-73
2022/06/12 00:13:25;;;;;;;12.87;8.40;;;;;;;15.36;91.05;100412.44;5047519;22;20215;-71
2022/06/12 00:15:52;;;;;;;14.17;8.53;;;;;;;15.37;91.39;100416.78;5070972;22;22416;-70
2022/06/12 00:18:19;;;;;;;16.07;9.20;;;;;;;15.26;91.51;100417.19;5086225;23;20210;-73
2022/06/12 00:20:46;;;;;;;16.90;9.83;;;;;;;15.24;91.99;100421.88;5089627;22;21243;-72
2022/06/12 00:23:16;;;;;;;19.90;8.97;;;;;;;15.16;91.99;100417.41;5077373;22;20374;-71
2022/06/12 00:25:43;;;;;;;11.77;8.20;;;;;;;15.10;92.54;100418.94;5086907;22;20238;-72
2022/06/12 00:28:09;;;;;;;24.90;10.80;;;;;;;15.01;92.45;100417.31;5078515;22;20355;-71
2022/06/12 00:30:36;;;;;;;18.93;9.53;;;;;;;14.98;93.48;100417.63;5079383;22;20210;-71
2022/06/12 00:33:03;;;;;;;14.47;8.77;;;;;;;14.97;93.70;100411.44;5070539;22;21352;-71
2022/06/12 00:35:33;;;;;;;12.60;7.67;;;;;;;15.03;93.51;100409.06;5087982;22;20210;-72
2022/06/12 00:38:00;;;;;;;16.23;9.07;;;;;;;14.91;93.57;100404.13;5097798;22;20590;-70
2022/06/12 00:40:27;;;;;;;12.53;8.67;;;;;;;14.92;93.72;100410.31;5089157;22;21439;-72
2022/06/12 00:42:59;;;;;;;17.77;8.93;;;;;;;14.94;93.81;100410.97;5048979;22;25491;-70
2022/06/12 00:45:35;;;;;;;16.53;9.20;;;;;;;14.98;93.73;100409.59;5094675;22;20258;-72
2022/06/12 00:48:15;;;;;;;17.87;9.97;;;;;;;14.87;94.80;100410.00;5096595;22;20201;-72
2022/06/12 00:50:48;;;;;;;14.73;8.80;;;;;;;14.92;94.61;100403.09;5078238;23;20269;-73
2022/06/12 00:53:28;;;;;;;15.47;9.30;;;;;;;14.89;94.84;100407.97;5076555;22;20237;-71
2022/06/12 00:56:16;;;;;;;20.67;9.77;;;;;;;14.96;94.58;100408.94;5071031;23;20237;-73
2022/06/12 00:58:55;;;;;;;14.70;8.90;;;;;;;14.98;94.49;100404.25;5058666;22;20202;-72
2022/06/12 01:01:32;;;;;;;18.67;9.27;;;;;;;14.91;94.67;100401.44;5072098;23;20202;-71
2022/06/12 01:06:47;;;;;;;20.67;9.23;;;;;;;14.91;94.61;100405.94;5083678;22;22667;-70
2022/06/12 01:09:22;;;;;;;15.67;8.93;;;;;;;14.88;94.63;100398.28;5078851;23;20266;-71
2022/06/12 01:11:51;;;;;;;14.73;8.67;;;;;;;14.88;94.77;100400.94;5057571;23;20263;-69
2022/06/12 01:14:21;;;;;;;14.27;8.57;;;;;;;14.85;94.63;100402.13;5084342;22;20210;-71
2022/06/12 01:16:48;;;;;;;18.93;9.43;;;;;;;14.77;95.09;100397.66;5071115;22;20340;-70
2022/06/12 01:19:29;;;;;;;13.93;9.33;;;;;;;14.74;95.46;100395.28;5094948;22;20209;-71
2022/06/12 01:22:26;;;;;;;17.00;9.27;;;;;;;14.75;95.80;100385.44;5097295;23;20202;-71
2022/06/12 01:25:10;;;;;;;14.37;8.50;;;;;;;14.76;95.22;100387.94;5078304;22;21626;-73
2022/06/12 01:27:48;;;;;;;15.17;9.00;;;;;;;14.83;95.37;100382.72;5094418;22;21958;-71
2022/06/12 01:30:19;;;;;;;20.70;9.97;;;;;;;14.92;94.99;100381.66;5096611;22;20209;-71
2022/06/12 01:33:02;;;;;;;16.63;9.13;;;;;;;14.80;95.26;100392.94;5068441;23;20209;-72
2022/06/12 01:35:46;;;;;;;20.47;10.50;;;;;;;14.69;95.67;100384.28;5086059;22;20256;-71
2022/06/12 01:38:31;;;;;;;17.70;9.20;;;;;;;14.75;95.81;100393.47;5080878;22;20603;-71
2022/06/12 01:41:01;;;;;;;15.73;9.77;;;;;;;14.77;95.63;100392.28;5077327;22;20633;-70
2022/06/12 01:43:50;;;;;;;18.40;10.73;;;;;;;14.80;94.96;100395.59;5109227;23;21174;-72
2022/06/12 01:46:22;;;;;;;18.50;10.33;;;;;;;14.76;95.25;100393.28;5114487;23;20384;-70
2022/06/12 01:48:54;;;;;;;17.83;10.13;;;;;;;14.74;95.50;100389.94;5104851;23;20269;-71
2022/06/12 01:51:34;;;;;;;19.13;11.57;;;;;;;14.85;94.93;100391.41;5090925;23;20206;-71
2022/06/12 01:54:09;;;;;;;17.33;10.97;;;;;;;14.94;93.97;100390.38;5101263;23;20333;-71
2022/06/12 01:56:45;;;;;;;16.07;9.77;;;;;;;14.78;94.61;100385.09;5066863;23;20213;-72
2022/06/12 01:59:22;;;;;;;15.97;10.10;;;;;;;14.78;94.40;100391.28;5110943;22;21649;-72
2022/06/12 02:01:56;;;;;;;16.97;10.17;;;;;;;14.82;94.66;100385.56;5107674;23;20488;-72
2022/06/12 02:04:33;;;;;;;15.20;9.70;;;;;;;14.89;94.55;100398.09;5091322;22;21097;-72
2022/06/12 02:07:11;;;;;;;18.43;10.47;;;;;;;14.83;94.41;100389.91;5090779;23;20620;-71
2022/06/12 02:09:51;;;;;;;12.23;9.03;;;;;;;14.86;94.81;100394.91;5098239;23;21658;-72
2022/06/12 02:15:13;;;;;;;15.07;10.23;;;;;;;14.87;94.51;100396.59;5115743;22;22301;-70
2022/06/12 02:17:50;;;;;;;19.57;11.47;;;;;;;14.81;94.07;100389.25;5112353;22;20347;-72
2022/06/12 02:20:18;;;;;;;18.60;11.17;;;;;;;14.80;93.87;100383.06;5108859;22;20648;-72
2022/06/12 02:22:47;;;;;;;17.43;10.77;;;;;;;14.72;94.34;100389.28;5101903;22;20204;-71
2022/06/12 02:25:23;;;;;;;16.20;10.90;;;;;;;14.85;94.04;100390.59;5111567;22;20274;-72
2022/06/12 02:27:53;;;;;;;16.00;10.10;;;;;;;14.83;94.04;100392.59;5089691;22;21707;-72
2022/06/12 02:30:24;;;;;;;21.70;11.77;;;;;;;14.84;93.98;100383.53;5117885;22;20248;-71
2022/06/12 02:32:58;;;;;;;15.83;10.63;;;;;;;14.83;94.21;100381.88;5101169;22;21745;-71
2022/06/12 02:35:47;;;;;;;24.83;12.97;;;;;;;14.95;93.31;100388.53;5079097;23;20204;-71
2022/06/12 02:38:18;;;;;;;21.60;12.33;;;;;;;15.04;92.62;100382.13;5099721;23;20198;-71
2022/06/12 02:40:51;;;;;;;22.63;12.93;;;;;;;15.11;91.63;100380.41;5105721;23;20210;-71
2022/06/12 02:43:22;;;;;;;23.40;12.70;;;;;;;15.18;91.39;100386.72;5104290;22;20265;-73
2022/06/12 02:46:05;;;;;;;22.83;12.33;;;;;;;15.22;90.44;100386.38;5123061;22;20373;-71
2022/06/12 02:48:32;;;;;;;22.73;12.83;;;;;;;15.12;91.14;100382.06;5108154;22;20274;-72
2022/06/12 02:51:27;;;;;;;25.40;12.90;;;;;;;15.20;90.79;100389.25;5091147;22;20261;-71
2022/06/12 02:54:07;;;;;;;22.47;13.23;;;;;;;15.25;89.76;100386.03;5120199;23;20387;-71
2022/06/12 02:57:19;;;;;;;25.60;13.97;;;;;;;15.38;89.42;100383.59;5134028;23;22955;-71
2022/06/12 02:59:58;;;;;;;25.87;12.97;;;;;;;15.44;88.73;100385.56;5136476;23;20209;-71
2022/06/12 03:02:32;;;;;;;19.17;12.57;;;;;;;15.51;87.96;100383.00;5123253;23;20242;-74
2022/06/12 03:05:02;;;;;;;21.47;12.17;;;;;;;15.40;88.21;100384.25;5120477;23;20620;-71
2022/06/12 03:07:30;;;;;;;19.60;13.20;;;;;;;15.33;88.82;100394.00;5138233;23;20210;-72
2022/06/12 03:09:59;;;;;;;16.93;10.83;;;;;;;15.37;88.54;100392.66;5088362;23;20253;-71
2022/06/12 03:12:28;;;;;;;18.57;11.97;;;;;;;15.43;88.56;100394.63;5100872;22;20213;-71
2022/06/12 03:14:55;;;;;;;17.33;12.07;;;;;;;15.44;88.58;100395.47;5109326;22;20206;-72
2022/06/12 03:17:22;;;;;;;20.43;12.37;;;;;;;15.59;87.54;100394.53;5125086;23;20206;-71
2022/06/12 03:19:54;;;;;;;20.40;12.10;;;;;;;15.74;86.66;100396.44;5103356;22;26877;-70
2022/06/12 03:22:49;;;;;;;18.93;12.40;;;;;;;15.72;86.29;100393.13;5108877;22;21793;-73
2022/06/12 03:25:31;;;;;;;19.03;11.87;;;;;;;15.77;86.50;100388.03;5116492;22;24770;-71
2022/06/12 03:28:05;;;;;;;25.73;12.30;;;;;;;15.76;85.63;100394.44;5092549;22;20449;-72
2022/06/12 03:30:37;;;;;;;18.83;11.50;;;;;;;15.88;85.28;100384.94;5099992;23;20202;-70
2022/06/12 03:33:24;;;;;;;21.37;11.57;;;;;;;15.95;85.71;100388.56;5113723;22;20208;-70
2022/06/12 03:35:54;;;;;;;23.03;11.73;;;;;;;15.98;84.51;100398.91;5100008;22;20265;-71
2022/06/12 03:38:30;;;;;;;18.50;11.03;;;;;;;16.11;84.42;100392.09;5114985;22;20210;-71
2022/06/12 03:41:04;;;;;;;23.30;11.50;;;;;;;16.17;83.42;100380.63;5121090;22;20259;-72
2022/06/12 03:43:34;;;;;;;17.53;11.87;;;;;;;16.26;83.45;100392.97;5084360;22;20217;-71
2022/06/12 03:46:06;;;;;;;19.17;10.73;;;;;;;16.31;81.79;100395.94;5080937;23;20237;-71
2022/06/12 03:48:38;;;;;;;19.00;10.93;;;;;;;16.37;82.08;100397.91;5091576;23;20287;-72
2022/06/12 03:51:25;;;;;;;15.63;9.80;;;;;;;16.66;81.59;100404.28;5102251;23;23685;-72
2022/06/12 03:54:02;;;;;;;19.23;10.73;;;;;;;16.79;80.63;100401.00;5128227;23;20652;-70
2022/06/12 03:59:27;;;;;;;19.57;10.87;;;;;;;17.07;79.59;100411.91;5099211;22;20202;-71
2022/06/12 04:01:54;;;;;;;15.53;10.33;;;;;;;17.17;78.45;100411.59;5092899;22;20236;-70
2022/06/12 04:04:24;;;;;;;16.70;9.83;;;;;;;17.34;77.18;100407.66;5089080;22;20213;-72
2022/06/12 04:06:53;;;;;;;17.57;10.10;;;;;;;17.55;75.88;100406.84;5064951;22;20210;-71
2022/06/12 04:09:24;;;;;;;16.67;9.33;;;;;;;17.88;75.21;100412.56;5108417;22;20205;-72
2022/06/12 04:11:55;;;;;;;14.47;9.63;;;;;;;18.07;73.28;100416.44;5104705;22;20253;-72
2022/06/12 04:14:26;;;;;;;14.60;9.10;;;;;;;18.24;72.54;100408.09;5111155;23;21081;-71
2022/06/12 04:16:54;;;;;;;16.70;9.07;;;;;;;18.14;73.39;100409.28;5111374;23;20202;-72
2022/06/12 04:19:23;;;;;;;10.63;8.13;;;;;;;18.28;72.72;100414.75;5094859;23;22787;-72
2022/06/12 04:21:59;;;;;;;14.80;8.50;;;;;;;18.22;72.48;100415.56;5101870;22;20574;-71
2022/06/12 04:24:37;;;;;;;16.93;8.70;;;;;;;18.25;73.38;100420.53;5089923;23;20203;-72
2022/06/12 04:27:12;;;;;;;15.50;8.23;;;;;;;18.25;73.08;100407.91;5097077;23;20206;-71
2022/06/12 04:29:53;;;;;;;14.87;8.30;;;;;;;18.20;73.18;100414.91;5090728;23;20213;-71
2022/06/12 04:32:20;;;;;;;13.90;7.80;;;;;;;18.41;72.18;100419.44;5094376;23;20202;-71
2022/06/12 04:34:47;;;;;;;11.43;7.20;;;;;;;18.65;72.09;100418.94;5099682;23;21063;-71
2022/06/12 04:37:17;;;;;;;12.63;7.23;;;;;;;18.76;71.73;100431.91;5103755;22;20291;-70
2022/06/12 04:39:45;;;;;;;13.17;7.13;;;;;;;18.79;71.75;100436.06;5091714;23;22313;-71
2022/06/12 04:42:13;;;;;;;10.87;7.17;;;;;;;18.69;71.47;100424.78;5086764;22;20202;-71
2022/06/12 04:44:40;;;;;;;18.77;7.97;;;;;;;18.47;71.79;100429.41;5114449;22;21445;-72
2022/06/12 04:47:07;;;;;;;15.33;7.83;;;;;;;18.71;71.00;100428.94;5085521;23;20253;-71
2022/06/12 04:49:35;;;;;;;13.50;7.77;;;;;;;18.92;70.22;100422.66;5077592;23;22163;-71
2022/06/12 04:52:05;;;;;;;19.37;10.90;;;;;;;18.90;69.41;100427.41;5116474;22;22092;-71
2022/06/12 04:54:32;;;;;;;13.37;7.60;;;;;;;19.00;69.17;100420.81;5136603;22;20279;-71
2022/06/12 04:56:59;;;;;;;11.80;5.93;;;;;;;19.11;69.18;100429.19;5085869;23;20280;-71
2022/06/12 04:59:26;;;;;;;12.80;6.03;;;;;;;19.28;68.11;100429.66;5113152;23;20202;-71
2022/06/12 05:01:53;;;;;;;10.80;5.97;;;;;;;19.31;68.12;100429.22;5111255;23;20197;-70
2022/06/12 05:04:22;;;;;;;9.77;5.77;;;;;;;19.44;67.87;100438.44;5113002;23;21750;-71
2022/06/12 05:06:49;;;;;;;11.37;5.13;;;;;;;19.49;66.98;100435.94;5105067;23;20232;-69
2022/06/12 05:09:17;;;;;;;10.17;5.50;;;;;;;19.60;65.22;100435.34;5116723;22;20221;-70
2022/06/12 05:11:44;;;;;;;7.30;4.20;;;;;;;19.80;63.96;100435.41;5082570;23;21166;-71
2022/06/12 05:14:11;;;;;;;8.33;5.07;;;;;;;19.95;63.21;100429.84;5075522;23;20198;-72
2022/06/12 05:16:46;;;;;;;7.40;4.20;;;;;;;20.15;62.49;100436.06;5097707;23;26148;-69
2022/06/12 05:19:16;;;;;;;8.10;4.33;;;;;;;20.34;61.02;100436.25;5068693;23;20817;-70
2022/06/12 05:21:43;;;;;;;9.00;3.93;;;;;;;20.62;59.85;100434.16;5079178;23;20201;-70
2022/06/12 05:24:10;;;;;;;9.77;3.60;;;;;;;21.07;58.62;100445.09;5115028;23;20201;-71
2022/06/12 05:26:38;;;;;;;7.93;3.60;;;;;;;21.57;56.34;100446.34;5100997;23;20210;-71
2022/06/12 05:29:06;;;;;;;7.13;3.10;;;;;;;22.02;54.07;100446.25;5093292;23;20218;-72
2022/06/12 05:31:34;;;;;;;8.30;3.40;;;;;;;22.10;53.86;100454.09;5108720;22;25415;-71
2022/06/12 05:34:01;;;;;;;8.47;3.33;;;;;;;22.50;52.77;100449.22;5113004;23;21568;-70
2022/06/12 05:36:28;;;;;;;5.47;3.53;;;;;;;22.73;53.98;100445.84;5111497;23;20368;-71
2022/06/12 05:38:55;;;;;;;12.70;4.13;;;;;;;23.07;53.84;100450.94;5100003;23;21093;-71
2022/06/12 05:41:21;;;;;;;7.13;3.17;;;;;;;23.21;51.81;100449.72;5113968;23;24118;-70
2022/06/12 05:43:48;;;;;;;6.47;3.50;;;;;;;23.46;50.80;100449.59;5134332;23;20205;-70
2022/06/12 05:46:16;;;;;;;8.17;3.63;;;;;;;23.36;50.91;100452.03;5110867;23;20360;-70
2022/06/12 05:48:44;;;;;;;6.80;3.40;;;;;;;24.33;49.64;100451.84;5107687;23;20316;-70
2022/06/12 05:51:12;;;;;;;6.20;3.07;;;;;;;24.41;47.71;100459.66;5101874;23;20265;-71
2022/06/12 05:53:39;;;;;;;4.03;3.00;;;;;;;25.05;45.65;100459.78;5102689;22;21127;-72
2022/06/12 05:56:12;;;;;;;12.43;3.13;;;;;;;25.63;44.41;100449.75;5081457;22;21575;-71
2022/06/12 05:58:39;;;;;;;3.87;2.13;;;;;;;26.15;40.67;100470.56;5094702;23;21163;-72
2022/06/12 06:01:07;;;;;;;5.32;2.60;;;;;;;26.57;38.80;100470.19;5110112;23;20198;-70
2022/06/12 06:03:34;;;;;;;7.25;2.47;;;;;;;27.29;38.30;100477.47;5089593;23;21509;-71
2022/06/12 06:06:02;;;;;;;6.95;2.33;;;;;;;26.84;39.84;100470.31;5119114;23;22413;-71
2022/06/12 06:08:29;;;;;;;6.70;2.20;;;;;;;26.87;38.32;100475.25;5111469;22;20205;-72
2022/06/12 06:10:55;;;;;;;4.45;1.90;;;;;;;27.16;36.98;100480.56;5104471;23;20201;-70
2022/06/12 06:13:22;;;;;;;6.93;2.28;;;;;;;27.82;35.41;100487.91;5115141;23;20208;-73
2022/06/12 06:15:50;;;;;;;8.00;2.13;;;;;;;28.84;33.56;100486.00;5105982;22;20247;-72
2022/06/12 06:18:18;;;;;;;6.03;2.25;;;;;;;28.17;35.34;100482.78;5109190;23;20261;-73
2022/06/12 06:20:45;;;;;;;5.28;1.95;;;;;;;27.85;34.53;100480.00;5117442;22;20245;-71
2022/06/12 06:23:13;;;;;;;5.47;1.98;;;;;;;28.53;33.60;100483.06;5119742;23;20209;-71
2022/06/12 06:25:40;;;;;;;6.55;2.00;;;;;;;28.72;32.69;100485.38;5110937;23;20206;-70
2022/06/12 06:28:08;;;;;;;4.78;2.00;;;;;;;28.22;33.75;100472.97;5080513;23;21256;-71
2022/06/12 06:30:36;;;;;;;4.57;1.95;;;;;;;29.53;31.83;100482.22;5070591;23;23567;-71
2022/06/12 06:33:03;;;;;;;3.28;1.60;;;;;;;30.33;29.49;100479.06;5082437;23;20207;-72
2022/06/12 06:35:29;;;;;;;3.03;1.55;;;;;;;29.87;29.47;100479.81;5103714;23;20223;-69
2022/06/12 06:37:56;;;;;;;4.78;1.55;;;;;;;30.57;27.41;100483.97;5111463;23;20729;-72
2022/06/12 06:40:25;;;;;;;4.28;1.50;;;;;;;30.83;27.77;100496.53;5119455;22;20206;-72
2022/06/12 06:42:52;;;;;;;4.18;1.80;;;;;;;29.83;28.09;100486.97;5154225;23;21190;-73
2022/06/12 06:48:05;;;;;;;2.33;1.30;;;;;;;30.48;26.91;100483.69;5115237;22;20206;-71
2022/06/12 06:50:32;;;;;;;4.00;1.40;;;;;;;30.33;26.52;100486.47;5124869;22;20664;-75
2022/06/12 06:52:59;;;;;;;3.80;1.48;;;;;;;28.77;29.84;100485.41;5106920;22;23377;-73
2022/06/12 06:55:27;;;;;;;3.03;1.50;;;;;;;29.36;30.03;100479.69;5119272;22;20209;-72
2022/06/12 06:57:54;;;;;;;5.10;1.70;;;;;;;29.79;28.86;100476.81;5107984;22;20323;-72
2022/06/12 07:00:25;;;;;;;5.35;1.70;;;;;;;29.31;29.45;100467.88;5093759;22;20354;-71
2022/06/12 07:02:51;;;;;;;5.22;1.55;;;;;;;29.18;29.92;100458.25;5116466;22;21677;-72
2022/06/12 07:05:19;;;;;;;3.92;1.67;;;;;;;28.66;31.01;100451.66;5152339;22;20209;-69
2022/06/12 07:07:46;;;;;;;2.33;1.60;;;;;;;29.02;31.38;100463.63;5117225;22;20207;-68
2022/06/12 07:10:18;;;;;;;5.32;1.80;;;;;;;27.68;33.29;100441.81;5080260;23;20205;-68
2022/06/12 07:12:45;;;;;;;4.63;1.50;;;;;;;27.00;34.89;100440.47;5089405;22;20260;-69
2022/06/12 07:15:13;;;;;;;4.00;1.90;;;;;;;26.05;35.90;100434.97;5108301;22;20206;-70
2022/06/12 07:17:40;;;;;;;4.90;1.90;;;;;;;25.03;38.02;100423.78;5087098;22;20216;-70
2022/06/12 07:20:09;;;;;;;5.05;1.80;;;;;;;24.97;39.18;100423.91;5106840;22;22017;-69
2022/06/12 07:22:36;;;;;;;4.77;1.73;;;;;;;24.68;39.38;100425.72;5097185;23;20571;-70
2022/06/12 07:25:03;;;;;;;4.10;1.87;;;;;;;24.63;38.77;100418.28;5102755;23;20343;-69
2022/06/12 07:27:30;;;;;;;7.80;1.93;;;;;;;24.18;41.70;100410.69;5093877;23;20205;-69
2022/06/12 07:29:57;;;;;;;7.80;1.97;;;;;;;23.97;41.54;100410.19;5127947;22;22194;-72
2022/06/12 07:32:24;;;;;;;5.37;1.73;;;;;;;24.00;40.85;100415.19;5130425;22;20578;-70
2022/06/12 07:34:50;;;;;;;4.73;1.80;;;;;;;24.21;39.69;100410.25;5084787;23;20213;-70
2022/06/12 07:37:20;;;;;;;5.20;1.83;;;;;;;23.95;40.94;100411.47;5101911;22;20202;-72
2022/06/12 07:39:47;;;;;;;5.53;1.83;;;;;;;23.71;42.03;100410.59;5089043;23;22324;-73
2022/06/12 07:42:14;;;;;;;3.40;1.60;;;;;;;23.89;42.10;100412.44;5129871;22;20203;-71
2022/06/12 07:44:40;;;;;;;4.33;2.30;;;;;;;23.97;40.65;100407.47;5114107;23;20204;-70
2022/06/12 07:47:07;;;;;;;8.77;2.00;;;;;;;23.77;42.51;100404.25;5093062;23;20219;-70
2022/06/12 07:49:34;;;;;;;6.60;1.50;;;;;;;23.82;42.22;100407.09;5085175;23;22053;-72
2022/06/12 07:52:05;;;;;;;5.90;1.63;;;;;;;24.26;40.52;100413.06;5131186;22;20343;-70
2022/06/12 07:54:33;;;;;;;6.47;1.80;;;;;;;24.42;41.02;100412.38;5129724;22;20212;-73
2022/06/12 07:57:00;;;;;;;3.50;1.63;;;;;;;24.78;40.25;100415.06;5117926;22;20515;-70
2022/06/12 07:59:27;;;;;;;8.43;1.90;;;;;;;25.35;39.08;100415.16;5128747;23;20716;-70
2022/06/12 08:01:54;;;;;;;5.97;1.93;;;;;;;25.63;37.73;100413.50;5155615;22;20206;-70
2022/06/12 08:04:22;;;;;;;4.93;1.87;;;;;;;25.92;37.03;100414.31;5146431;22;20217;-70
2022/06/12 08:06:49;;;;;;;3.47;1.70;;;;;;;25.93;39.25;100415.13;5114654;23;21566;-70
2022/06/12 08:09:16;;;;;;;3.75;1.63;;;;;;;26.41;36.58;100414.53;5107885;22;20201;-71
2022/06/12 08:11:46;;;;;;;6.03;2.10;;;;;;;26.43;35.80;100412.34;5122866;23;20202;-72
2022/06/12 08:14:14;;;;;;;4.10;1.60;;;;;;;26.59;35.92;100415.34;5107522;23;24355;-70
2022/06/12 08:16:41;;;;;;;4.70;2.20;;;;;;;26.55;36.12;100411.47;5111254;23;21740;-71
2022/06/12 08:20:24;;;;;;;6.53;2.20;;;;;;;26.50;36.22;100404.84;5123529;23;20266;-69
2022/06/12 08:21:57;;;;;;;5.47;2.13;;;;;;;26.81;36.11;100418.94;5151507;22;21961;-69
2022/06/12 08:24:24;;;;;;;5.28;2.08;;;;;;;27.06;35.86;100412.13;5103602;22;22681;-71
2022/06/12 08:26:51;;;;;;;6.63;2.22;;;;;;;26.72;36.96;100406.81;5132346;23;25859;-68
2022/06/12 08:29:22;;;;;;;3.67;2.20;;;;;;;26.82;36.50;100417.84;5143052;22;21056;-70
2022/06/12 08:31:52;;;;;;;6.93;2.17;;;;;;;25.97;38.51;100411.66;5093162;22;20212;-69
2022/06/12 08:34:22;;;;;;;6.60;2.20;;;;;;;25.42;39.18;100406.84;5100066;23;20360;-70
2022/06/12 08:36:52;;;;;;;7.80;2.40;;;;;;;25.17;40.37;100401.69;5106589;22;20715;-69
2022/06/12 08:39:19;;;;;;;7.55;1.85;;;;;;;25.16;40.25;100406.31;5096749;23;20206;-70
2022/06/12 08:41:52;;;;;;;5.97;3.00;;;;;;;25.18;39.31;100403.41;5078427;23;20623;-69
2022/06/12 08:44:23;;;;;;;11.87;3.50;;;;;;;25.30;40.26;100389.72;5113011;22;20289;-68
2022/06/12 08:47:07;;;;;;;6.20;2.33;;;;;;;25.64;39.46;100396.91;5121909;22;20217;-67
2022/06/12 08:49:48;;;;;;;5.77;1.87;;;;;;;25.84;39.50;100396.41;5110306;23;20198;-76
2022/06/12 08:52:22;;;;;;;6.50;2.20;;;;;;;26.11;36.49;100391.16;5133080;23;22675;-71
2022/06/12 08:54:58;;;;;;;8.37;1.90;;;;;;;26.43;36.90;100398.72;5099343;22;20202;-70
2022/06/12 08:58:09;;;;;;;3.40;1.80;;;;;;;26.33;36.89;100399.41;5108566;22;20206;-71
2022/06/12 09:00:37;;;;;;;5.07;2.03;;;;;;;26.47;36.07;100399.88;5057258;23;20213;-71
2022/06/12 09:03:07;;;;;;;7.03;2.25;;;;;;;26.45;36.42;100391.09;5070293;23;21305;-71
2022/06/12 09:06:17;;;;;;;4.63;2.13;;;;;;;26.49;36.70;100397.72;5110708;23;20210;-72
2022/06/12 09:08:49;;;;;;;4.50;2.05;;;;;;;26.37;36.99;100397.00;5128802;23;21641;-71
2022/06/12 09:11:36;;;;;;;4.85;2.25;;;;;;;26.16;37.34;100395.88;5098788;22;25355;-71
2022/06/12 09:14:03;;;;;;;7.28;2.30;;;;;;;25.94;38.07;100390.31;5121706;22;20249;-70
2022/06/12 09:16:35;;;;;;;4.57;2.20;;;;;;;26.23;37.41;100390.25;5117982;23;20795;-70
2022/06/12 09:19:10;;;;;;;8.68;2.70;;;;;;;25.93;38.24;100388.69;5117150;22;21090;-70
2022/06/12 09:21:47;;;;;;;6.40;2.40;;;;;;;25.57;39.37;100385.34;5099669;22;20202;-72
2022/06/12 09:25:02;;;;;;;8.93;3.03;;;;;;;26.19;39.25;100383.63;5082862;23;20215;-75
2022/06/12 09:27:44;;;;;;;6.73;2.90;;;;;;;26.39;37.61;100381.22;5052523;23;20291;-70
2022/06/12 09:30:36;;;;;;;8.77;2.70;;;;;;;26.40;40.48;100371.94;5107648;23;20209;-65
2022/06/12 09:33:07;;;;;;;6.97;2.70;;;;;;;25.76;42.51;100371.47;5126416;22;20207;-69
2022/06/12 09:35:54;;;;;;;6.00;2.50;;;;;;;26.05;42.58;100369.50;5096660;22;21296;-68
2022/06/12 09:38:21;;;;;;;9.07;2.83;;;;;;;25.99;43.45;100368.63;5122450;22;20202;-65
2022/06/12 09:41:08;;;;;;;7.25;2.97;;;;;;;26.32;43.73;100364.19;5133074;22;20206;-59
2022/06/12 09:43:56;;;;;;;14.13;3.20;;;;;;;26.51;45.31;100362.81;5137102;22;21314;-54
2022/06/12 09:46:30;;;;;;;7.82;3.17;;;;;;;26.81;44.13;100367.06;5096954;23;22091;-67
2022/06/12 09:49:39;;;;;;;12.05;3.58;;;;;;;27.06;44.30;100360.22;5123979;23;20213;-68
2022/06/12 09:52:24;;;;;;;8.43;3.28;;;;;;;26.99;43.47;100362.34;5074966;23;20206;-70
2022/06/12 09:54:59;;;;;;;5.55;2.78;;;;;;;26.97;44.12;100359.84;5124256;23;20621;-70
2022/06/12 09:58:01;;;;;;;7.18;3.42;;;;;;;26.42;42.59;100363.50;5123193;23;20312;-73
2022/06/12 10:00:39;;;;;;;7.45;3.22;;;;;;;25.72;44.64;100354.78;5134812;22;20420;-72
2022/06/12 10:03:21;;;;;;;8.13;3.47;;;;;;;25.65;46.58;100352.22;5097975;23;20257;-72
2022/06/12 10:06:02;;;;;;;8.47;3.10;;;;;;;26.22;43.83;100353.97;5127021;23;21572;-71
2022/06/12 10:08:38;;;;;;;10.98;3.40;;;;;;;25.94;43.94;100360.34;5121190;22;20548;-70
2022/06/12 10:11:11;;;;;;;5.90;3.00;;;;;;;26.21;42.82;100363.22;5131962;23;20204;-72
2022/06/12 10:13:48;;;;;;;9.50;3.07;;;;;;;26.33;41.03;100363.09;5112652;22;21577;-73
2022/06/12 10:16:25;;;;;;;7.22;3.00;;;;;;;26.43;41.60;100363.25;5119745;22;20670;-72
2022/06/12 10:19:34;;;;;;;11.93;3.20;;;;;;;26.39;41.32;100359.38;5125222;22;20201;-70
2022/06/12 10:22:07;;;;;;;6.03;3.50;;;;;;;26.49;41.65;100359.50;5111190;22;20260;-70
2022/06/12 10:24:34;;;;;;;7.10;3.23;;;;;;;26.33;43.10;100354.91;5113673;23;21295;-71
2022/06/12 10:27:07;;;;;;;6.88;3.67;;;;;;;26.25;41.78;100358.09;5123863;23;21313;-71
2022/06/12 10:29:51;;;;;;;11.25;3.63;;;;;;;25.65;41.50;100354.94;5086212;22;20327;-71
2022/06/12 10:32:20;;;;;;;5.40;3.17;;;;;;;25.51;41.74;100353.59;5114475;22;20202;-71
2022/06/12 10:34:47;;;;;;;4.07;2.88;;;;;;;25.47;42.12;100344.25;5085770;23;22074;-72
2022/06/12 10:37:20;;;;;;;5.95;3.10;;;;;;;25.32;42.91;100344.00;5102828;23;20209;-70
2022/06/12 10:40:21;;;;;;;6.00;3.70;;;;;;;25.14;44.85;100337.66;5104771;22;20202;-72
2022/06/12 10:42:53;;;;;;;5.37;3.70;;;;;;;24.70;47.29;100331.06;5101771;23;20260;-72
2022/06/12 10:45:22;;;;;;;9.87;4.20;;;;;;;24.62;48.03;100335.81;5110716;23;20210;-71
2022/06/12 10:47:50;;;;;;;7.17;4.13;;;;;;;24.69;48.52;100316.63;5108184;22;23243;-72
2022/06/12 10:50:23;;;;;;;7.93;4.30;;;;;;;24.25;49.50;100321.66;5100039;23;20379;-70
2022/06/12 10:53:00;;;;;;;8.00;4.30;;;;;;;24.53;50.17;100325.56;5081095;23;20207;-72
2022/06/12 10:55:38;;;;;;;6.63;4.47;;;;;;;24.71;49.63;100319.94;5091059;23;20202;-71
2022/06/12 10:58:37;;;;;;;6.90;4.10;;;;;;;24.79;49.46;100311.38;5096853;23;20300;-70
2022/06/12 11:01:28;;;;;;;8.17;5.23;;;;;;;24.43;51.32;100309.81;5134645;22;20210;-73
2022/06/12 11:04:00;;;;;;;6.60;4.57;;;;;;;24.54;51.96;100319.06;5124374;22;20202;-72
2022/06/12 11:06:48;;;;;;;8.93;4.97;;;;;;;24.80;52.23;100304.91;5113654;22;20202;-71
2022/06/12 11:09:39;;;;;;;12.07;4.90;;;;;;;24.64;52.97;100306.47;5116755;22;20210;-73
2022/06/12 11:12:15;;;;;;;9.27;4.70;;;;;;;25.09;51.83;100302.16;5118080;23;20206;-71
2022/06/12 11:15:23;;;;;;;8.27;4.80;;;;;;;24.95;50.00;100298.91;5109223;23;20212;-71
2022/06/12 11:17:59;;;;;;;7.67;4.00;;;;;;;25.30;47.57;100302.56;5147076;23;20319;-72
2022/06/12 11:20:38;;;;;;;10.27;4.40;;;;;;;24.99;49.07;100288.38;5110306;22;20437;-71
2022/06/12 11:23:15;;;;;;;7.87;3.90;;;;;;;24.98;45.06;100303.03;5094272;22;22383;-71
2022/06/12 11:26:22;;;;;;;8.57;4.33;;;;;;;25.04;45.87;100296.63;5115968;23;20213;-71
2022/06/12 11:29:10;;;;;;;7.83;3.77;;;;;;;25.09;47.05;100298.63;5109709;22;22065;-73
2022/06/12 11:32:21;;;;;;;9.32;3.72;;;;;;;25.30;45.99;100294.38;5109931;22;20293;-71
2022/06/12 11:35:05;;;;;;;7.20;4.00;;;;;;;24.69;46.82;100289.44;5114911;23;20277;-71
2022/06/12 11:37:53;;;;;;;11.80;4.47;;;;;;;24.55;48.27;100285.34;5123456;22;25068;-70
2022/06/12 11:40:28;;;;;;;8.60;3.40;;;;;;;24.55;46.49;100279.88;5172864;23;20377;-71
2022/06/12 11:43:15;;;;;;;6.65;3.50;;;;;;;25.03;45.19;100278.66;5067610;22;20910;-71
2022/06/12 11:46:02;;;;;;;4.45;2.60;;;;;;;25.57;43.78;100278.25;5140245;22;21908;-72
2022/06/12 11:48:37;;;;;;;11.57;3.67;;;;;;;25.80;41.88;100280.78;5109496;22;21118;-72
2022/06/12 11:51:30;;;;;;;6.57;3.40;;;;;;;25.69;43.00;100279.78;5100945;22;20239;-72
2022/06/12 11:54:17;;;;;;;8.13;3.27;;;;;;;25.27;44.18;100273.91;5117552;22;20201;-72
2022/06/12 11:56:55;;;;;;;6.73;3.90;;;;;;;25.31;44.66;100257.91;5112849;22;20974;-71
2022/06/12 11:59:38;;;;;;;9.75;4.20;;;;;;;25.43;44.82;100264.13;5083652;22;23503;-72
2022/06/12 12:02:13;;;;;;;12.40;3.70;;;;;;;25.79;44.32;100261.94;5109940;22;20577;-70